Slide Mountain Weather observations

Data are for 10 minute period ending at time listed.
 Day   Time   Solar   Ave.   Ave.  Ave.  Vector  Max.    Baro.  
  of    of     Rad.   Air    Rel.  Wind   Wind   Wind   Press.  
Year   Day            Temp.  Hum.  Speed  Dir.   Gust           
2014   (PST)  Kw/m2    F      %     mph   deg.    mph     mb.   
-----------------------------------------------------------------
 354   22:40   0.00   31.8   100   10.6   316     16.3    712.6 
 354   22:50   0.00   31.9   100   12.9   338     20.2    712.5 
 354   23:00   0.00   32.0   100   10.0   264     17.1    712.8 
 354   23:10   0.00   32.1   100   11.9   301     20.0    712.7 
 354   23:20   0.00   32.2   100   12.2   336     21.0    712.7 
 354   23:30   0.00   32.2   100   11.5   303     19.1    712.4 
 354   23:40   0.00   32.1   100   11.9   324     18.0    712.5 
 354   23:50   0.00   32.1   100    9.7     7     17.1    712.7 
 355    0:00   0.00   32.1   100    8.0     6     14.9    713.4 
 355    0:10   0.00   32.0   100    6.0   295     10.7    713.5 
 355    0:20   0.00   31.9   100    6.4    13     14.7    713.3 
 355    0:30   0.00   31.8   100    5.2    75      9.8    713.4 
 355    0:40   0.00   31.7   100    8.4    13     14.2    713.4 
 355    0:50   0.00   31.8   100    9.9   315     14.7    713.4 
 355    1:00   0.00   31.8   100   12.4   334     17.6    713.4 
 355    1:10   0.00   31.8   100   12.5   336     16.8    713.4 
 355    1:20   0.00   32.0   100   10.9   351     17.2    713.5 
 355    1:30   0.00   32.0   100   11.1     2     21.1    713.2 
 355    1:40   0.00   32.2   100    9.8   350     18.0    713.5 
 355    1:50   0.00   32.1   100    5.5   309      9.6    714.0 
 355    2:00   0.00   32.2   100    7.9   310     15.2    713.8 
 355    2:10   0.00   32.4   100    5.4   291     14.6    714.0 
 355    2:20   0.00   32.4   100    4.8   303      9.3    714.2 
 355    2:30   0.00   32.5   100    7.0   332     13.4    714.1 
 355    2:40   0.00   32.6   100    8.8   333     17.5    714.1 
 355    2:50   0.00   32.7   100    8.8   343     18.4    714.2 
 355    3:00   0.00   32.7   100   13.0   304     17.2    713.2 
 355    3:10   0.00   32.7   100   16.0   304     26.5    713.0 
 355    3:20   0.00   32.7   100   27.5   297     67.2    712.2 
 355    3:30   0.00   32.7   100   41.3   307     70.2    712.6 
 355    3:40   0.00   32.8   100   35.3   297     58.6    712.9 
 355    3:50   0.00   32.8   100   32.5   308     59.0    713.1 
 355    4:00   0.00   32.9   100   50.3   288     68.4    712.5 
 355    4:10   0.00   32.9   100   55.1   288     77.0    711.8 
 355    4:20   0.00   33.1   100   52.8   290     85.5    711.7 
 355    4:30   0.00   33.2   100   56.9   283     79.2    711.7 
 355    4:40   0.00   33.1   100   53.1   291     75.8    711.5 
 355    4:50   0.00   33.1   100   52.9   289     83.7    711.7 
 355    5:00   0.00   33.0   100   46.4   298     84.7    711.8 
 355    5:10   0.00   33.0   100   48.2   301     77.8    711.8 
 355    5:20   0.00   33.1   100   45.6   307     91.6    712.0 
 355    5:30   0.00   33.1   100   43.4   308     67.7    712.2 
 355    5:40   0.00   33.2   100   39.9   309     65.8    712.5 
 355    5:50   0.00   33.3   100   36.2   310     58.1    712.8 
 355    6:00   0.00   33.2   100   45.8   296     77.4    712.1 
 355    6:10   0.00   33.3   100   53.2   292     80.5    712.0 
 355    6:20   0.00   33.2   100   43.9   295     62.5    712.3 
 355    6:30   0.00   33.3   100   39.5   296     61.2    712.7 
 355    6:40   0.00   33.2   100   42.2   293     63.5    712.5 
 355    6:50   0.00   33.1   100   44.7   292     66.5    712.6 
 355    7:00   0.00   32.7   100   42.3   294     65.4    712.5 
 355    7:10   0.00   32.5   100   36.9   304     63.1    712.7 
 355    7:20   0.00   32.5   100   35.9   300     55.2    713.0 
 355    7:30   0.01   32.6   100   31.9   307     60.9    713.4 
 355    7:40   0.02   32.6   100   32.8   305     54.9    713.5 
 355    7:50   0.03   32.5   100   38.5   305     63.4    713.1 
 355    8:00   0.05   32.3    98   36.5   300     52.2    713.3 
 355    8:10   0.09   32.1    98   37.1   310     61.0    713.4 
 355    8:20   0.11   31.9    99   45.0   302     70.1    712.9 
 355    8:30   0.10   31.8    99   45.7   306     66.3    713.0 
 355    8:40   0.13   32.0    99   48.3   298     70.9    713.1 
 355    8:50   0.14   32.0    99   45.2   303     66.9    713.1 
 355    9:00   0.14   32.0    99   35.0   329     49.4    714.8 
 355    9:10   0.17   32.1    99   31.1   325     47.3    715.1 
 355    9:20   0.18   32.6    97   24.5   338     36.8    715.6 
 355    9:30   0.19   32.9    96   21.0   345     36.0    715.8 
 355    9:40   0.22   33.1    96   19.9   348     33.6    716.1 
 355    9:50   0.22   33.0    97   23.8   342     42.4    716.1 
 355   10:00   0.28   33.3    97   23.4   338     42.8    716.1 
 355   10:10   0.30   33.8    95   28.9   332     46.2    715.7 
 355   10:20   0.30   33.7    95   32.9   329     49.7    715.2 
 355   10:30   0.31   34.0    95   24.9   344     40.2    715.7 
 355   10:40   0.35   34.1    95   23.1   347     39.3    715.9 
 355   10:50   0.35   34.3    94   23.1   351     40.0    716.0 
 355   11:00   0.31   34.9    91   19.5     2     33.4    716.3 
 355   11:10   0.37   35.1    91   20.1     2     34.7    716.3 
 355   11:20   0.39   35.5    89   18.7     0     35.7    716.5 
 355   11:30   0.39   35.7    90   18.9   350     41.1    716.5 
 355   11:40   0.34   35.5    90   21.1   351     40.9    716.5 
 355   11:50   0.30   35.1    91   22.9   347     40.2    716.2 
 355   12:00   0.32   34.9    91   27.8   341     39.0    715.5 
 355   12:10   0.31   34.9    90   32.3   336     50.9    715.2 
 355   12:20   0.24   34.8    89   34.2   331     51.9    714.9 
 355   12:30   0.23   34.7    90   36.0   324     54.6    714.8 
 355   12:40   0.35   35.3    88   29.4   336     50.2    715.4 
 355   12:50   0.33   35.3    88   25.1   345     46.3    715.7 
 355   13:00   0.36   36.2    86   17.2   353     37.2    716.1 
 355   13:10   0.33   35.4    88   28.1   329     53.1    715.2 
 355   13:20   0.25   34.7    90   36.8   326     60.9    714.4 
 355   13:30   0.27   34.7    90   31.2   342     50.3    714.9 
 355   13:40   0.30   35.3    88   30.0   346     47.0    715.2 
 355   13:50   0.28   35.6    86   24.4   354     39.3    715.8 
 355   14:00   0.24   35.6    86   20.4     8     37.3    716.0 
 355   14:10   0.24   35.7    87   21.7   354     41.1    716.0 
 355   14:20   0.20   34.8    90   26.9   343     45.2    715.5 
 355   14:30   0.23   35.0    89   28.0   342     42.2    715.6 
 355   14:40   0.20   35.1    89   24.3   342     37.8    715.8 
 355   14:50   0.20   35.1    89   21.5   353     42.2    716.1 
 355   15:00   0.18   35.4    88   18.1   354     37.7    716.5 
 355   15:10   0.16   35.2    89   17.3   346     43.2    716.6 
 355   15:20   0.16   34.7    91   26.0   332     46.6    716.2 
 355   15:30   0.11   33.8    96   27.7   331     42.0    716.2 
 355   15:40   0.07   33.5    97   26.9   339     39.5    716.3 
 355   15:50   0.07   33.5    96   25.6   343     41.3    716.5 
 355   16:00   0.05   33.6    94   21.6   342     40.0    716.5 
 355   16:10   0.04   33.4    93   24.4   338     41.1    716.4 
 355   16:20   0.03   33.1    94   24.8   342     37.9    716.4 
 355   16:30   0.01   32.9    94   24.9   343     38.8    716.7 
 355   16:40   0.01   32.6    95   20.8   350     31.4    716.8 
 355   16:50   0.01   32.2    97   22.6   356     34.5    716.6 
 355   17:00   0.00   32.4    92   20.6   350     33.9    716.6 
 355   17:10   0.00   32.4    88   20.6   353     29.0    716.7 
 355   17:20   0.00   32.7    88   18.5   355     29.5    716.9 
 355   17:30   0.00   32.5    87   21.1   347     29.8    716.9 
 355   17:40   0.00   32.5    89   21.1   352     34.3    717.0 
 355   17:50   0.00   32.4    89   21.7   352     35.0    717.1 
 355   18:00   0.00   32.6    87   18.4   355     32.5    717.2 
 355   18:10   0.00   33.4    79   23.1   342     37.1    717.2 
 355   18:20   0.00   33.8    76   26.8   342     40.0    717.0 
 355   18:30   0.00   33.6    77   30.2   352     50.7    716.8 
 355   18:40   0.00   34.6    68   28.4   333     55.3    717.1 
 355   18:50   0.00   35.3    65   25.7   336     43.5    717.3 
 355   19:00   0.00   34.0    75   22.5   356     40.7    717.4 
 355   19:10   0.00   34.2    72   23.9   339     38.3    717.4 
 355   19:20   0.00   34.1    71   23.0   332     50.0    717.5 
 355   19:30   0.00   33.5    76   23.1   334     41.2    717.5 
 355   19:40   0.00   33.2    77   20.2   351     38.1    717.5 
 355   19:50   0.00   33.5    75   18.1   346     33.7    717.5 
 355   20:00   0.00   32.8    78   18.5   343     37.6    717.5 
 355   20:10   0.00   34.2    68   21.9   334     36.5    717.5 
 355   20:20   0.00   34.3    66   18.9   340     35.1    717.5 
 355   20:30   0.00   35.0    64   19.9   344     39.6    717.5 
 355   20:40   0.00   34.4    67   17.9   344     30.8    717.6 
 355   20:50   0.00   33.9    69   16.3   354     34.4    717.7 
 355   21:00   0.00   34.4    65   18.6   344     32.7    717.7 
 355   21:10   0.00   34.7    64   16.1   338     29.3    717.8 
 355   21:20   0.00   36.0    51   23.5   339     35.2    717.8 
 355   21:30   0.00   37.6    44   23.9   340     43.3    717.8 
 355   21:40   0.00   37.0    48   17.1   335     29.5    717.9 
 355   21:50   0.00   35.1    59    7.0   335     16.2    718.0 
 355   22:00   0.00   34.0    64    5.4     7     12.7    718.0 
 355   22:10   0.00   33.5    64   10.9   356     36.8    718.0 
 355   22:20   0.00   36.5    44   21.5   338     41.6    717.9 
 355   22:30   0.00   37.5    40   24.7   339     41.3    717.8 

Return to Slide Mountain graphs page.


Western Regional Climate Center,wrcc@dri.edu